sensor_id;sensor_type;location;lat;lon;timestamp;temperature;humidity
65573;SHT30;52214;50.940;13.996;2023-02-18T00:00:25;6.67;93.04
65573;SHT30;52214;50.940;13.996;2023-02-18T00:02:52;6.66;93.03
65573;SHT30;52214;50.940;13.996;2023-02-18T00:05:21;6.67;93.06
65573;SHT30;52214;50.940;13.996;2023-02-18T00:07:46;6.66;93.04
65573;SHT30;52214;50.940;13.996;2023-02-18T00:10:13;6.63;93.05
65573;SHT30;52214;50.940;13.996;2023-02-18T00:12:40;6.66;93.00
65573;SHT30;52214;50.940;13.996;2023-02-18T00:15:11;6.66;93.05
65573;SHT30;52214;50.940;13.996;2023-02-18T00:17:37;6.64;93.05
65573;SHT30;52214;50.940;13.996;2023-02-18T00:20:05;6.64;93.01
65573;SHT30;52214;50.940;13.996;2023-02-18T00:22:31;6.63;93.02
65573;SHT30;52214;50.940;13.996;2023-02-18T00:24:56;6.66;93.01
65573;SHT30;52214;50.940;13.996;2023-02-18T00:27:22;6.63;93.01
65573;SHT30;52214;50.940;13.996;2023-02-18T00:29:47;6.62;93.04
65573;SHT30;52214;50.940;13.996;2023-02-18T00:32:13;6.62;93.01
65573;SHT30;52214;50.940;13.996;2023-02-18T00:34:38;6.60;92.99
65573;SHT30;52214;50.940;13.996;2023-02-18T00:37:04;6.60;92.99
65573;SHT30;52214;50.940;13.996;2023-02-18T00:39:29;6.62;92.98
65573;SHT30;52214;50.940;13.996;2023-02-18T00:41:55;6.60;92.94
65573;SHT30;52214;50.940;13.996;2023-02-18T00:44:21;6.60;92.93
65573;SHT30;52214;50.940;13.996;2023-02-18T00:46:47;6.62;92.90
65573;SHT30;52214;50.940;13.996;2023-02-18T00:49:14;6.60;92.95
65573;SHT30;52214;50.940;13.996;2023-02-18T00:51:40;6.58;92.97
65573;SHT30;52214;50.940;13.996;2023-02-18T00:54:06;6.57;92.93
65573;SHT30;52214;50.940;13.996;2023-02-18T00:56:32;6.58;92.90
65573;SHT30;52214;50.940;13.996;2023-02-18T00:58:58;6.60;92.90
65573;SHT30;52214;50.940;13.996;2023-02-18T01:01:24;6.58;92.90
65573;SHT30;52214;50.940;13.996;2023-02-18T01:03:50;6.60;92.86
65573;SHT30;52214;50.940;13.996;2023-02-18T01:06:16;6.57;92.87
65573;SHT30;52214;50.940;13.996;2023-02-18T01:08:42;6.56;92.85
65573;SHT30;52214;50.940;13.996;2023-02-18T01:11:09;6.57;92.87
65573;SHT30;52214;50.940;13.996;2023-02-18T01:13:35;6.58;92.81
65573;SHT30;52214;50.940;13.996;2023-02-18T01:16:01;6.57;92.76
65573;SHT30;52214;50.940;13.996;2023-02-18T01:18:30;6.56;92.78
65573;SHT30;52214;50.940;13.996;2023-02-18T01:20:56;6.54;92.77
65573;SHT30;52214;50.940;13.996;2023-02-18T01:23:24;6.54;92.75
65573;SHT30;52214;50.940;13.996;2023-02-18T01:25:50;6.53;92.75
65573;SHT30;52214;50.940;13.996;2023-02-18T01:28:16;6.54;92.80
65573;SHT30;52214;50.940;13.996;2023-02-18T01:30:43;6.54;92.82
65573;SHT30;52214;50.940;13.996;2023-02-18T01:33:09;6.54;92.74
65573;SHT30;52214;50.940;13.996;2023-02-18T01:35:38;6.53;92.71
65573;SHT30;52214;50.940;13.996;2023-02-18T01:38:04;6.53;92.73
65573;SHT30;52214;50.940;13.996;2023-02-18T01:40:29;6.54;92.75
65573;SHT30;52214;50.940;13.996;2023-02-18T01:42:55;6.53;92.76
65573;SHT30;52214;50.940;13.996;2023-02-18T01:45:47;6.50;92.71
65573;SHT30;52214;50.940;13.996;2023-02-18T01:51:15;6.53;92.62
65573;SHT30;52214;50.940;13.996;2023-02-18T01:53:48;6.50;92.71
65573;SHT30;52214;50.940;13.996;2023-02-18T01:56:23;6.50;92.68
65573;SHT30;52214;50.940;13.996;2023-02-18T01:58:51;6.49;92.69
65573;SHT30;52214;50.940;13.996;2023-02-18T02:01:18;6.47;92.74
65573;SHT30;52214;50.940;13.996;2023-02-18T02:03:44;6.50;92.73
65573;SHT30;52214;50.940;13.996;2023-02-18T02:06:17;6.49;92.69
65573;SHT30;52214;50.940;13.996;2023-02-18T02:08:48;6.47;92.67
65573;SHT30;52214;50.940;13.996;2023-02-18T02:42:02;6.40;92.64
65573;SHT30;52214;50.940;13.996;2023-02-18T02:44:43;6.39;92.68
65573;SHT30;52214;50.940;13.996;2023-02-18T02:47:20;6.42;92.67
65573;SHT30;52214;50.940;13.996;2023-02-18T02:50:02;6.39;92.63
65573;SHT30;52214;50.940;13.996;2023-02-18T02:52:32;6.39;92.64
65573;SHT30;52214;50.940;13.996;2023-02-18T02:54:59;6.39;92.65
65573;SHT30;52214;50.940;13.996;2023-02-18T02:57:47;6.36;92.66
65573;SHT30;52214;50.940;13.996;2023-02-18T03:00:15;6.35;92.67
65573;SHT30;52214;50.940;13.996;2023-02-18T03:11:16;6.36;92.61
65573;SHT30;52214;50.940;13.996;2023-02-18T03:13:57;6.35;92.62
65573;SHT30;52214;50.940;13.996;2023-02-18T03:16:48;6.35;92.62
65573;SHT30;52214;50.940;13.996;2023-02-18T03:19:26;6.35;92.62
65573;SHT30;52214;50.940;13.996;2023-02-18T03:22:10;6.33;92.65
65573;SHT30;52214;50.940;13.996;2023-02-18T03:24:40;6.33;92.61
65573;SHT30;52214;50.940;13.996;2023-02-18T03:27:20;6.30;92.66
65573;SHT30;52214;50.940;13.996;2023-02-18T03:29:51;6.30;92.63
65573;SHT30;52214;50.940;13.996;2023-02-18T03:32:21;6.32;92.64
65573;SHT30;52214;50.940;13.996;2023-02-18T03:34:50;6.30;92.62
65573;SHT30;52214;50.940;13.996;2023-02-18T03:37:19;6.29;92.65
65573;SHT30;52214;50.940;13.996;2023-02-18T03:39:49;6.30;92.59
65573;SHT30;52214;50.940;13.996;2023-02-18T03:42:16;6.30;92.61
65573;SHT30;52214;50.940;13.996;2023-02-18T03:44:43;6.28;92.63
65573;SHT30;52214;50.940;13.996;2023-02-18T03:47:09;6.29;92.61
65573;SHT30;52214;50.940;13.996;2023-02-18T03:49:35;6.25;92.63
65573;SHT30;52214;50.940;13.996;2023-02-18T03:52:00;6.26;92.62
65573;SHT30;52214;50.940;13.996;2023-02-18T03:54:26;6.28;92.61
65573;SHT30;52214;50.940;13.996;2023-02-18T03:56:52;6.28;92.61
65573;SHT30;52214;50.940;13.996;2023-02-18T03:59:17;6.26;92.62
65573;SHT30;52214;50.940;13.996;2023-02-18T04:01:43;6.28;92.59
65573;SHT30;52214;50.940;13.996;2023-02-18T04:04:08;6.25;92.61
65573;SHT30;52214;50.940;13.996;2023-02-18T04:06:34;6.24;92.62
65573;SHT30;52214;50.940;13.996;2023-02-18T04:09:00;6.25;92.60
65573;SHT30;52214;50.940;13.996;2023-02-18T04:11:25;6.25;92.61
65573;SHT30;52214;50.940;13.996;2023-02-18T04:13:51;6.24;92.62
65573;SHT30;52214;50.940;13.996;2023-02-18T04:16:16;6.22;92.61
65573;SHT30;52214;50.940;13.996;2023-02-18T04:18:42;6.22;92.60
65573;SHT30;52214;50.940;13.996;2023-02-18T04:21:07;6.21;92.62
65573;SHT30;52214;50.940;13.996;2023-02-18T04:23:33;6.21;92.64
65573;SHT30;52214;50.940;13.996;2023-02-18T04:25:59;6.19;92.58
65573;SHT30;52214;50.940;13.996;2023-02-18T04:28:25;6.19;92.57
65573;SHT30;52214;50.940;13.996;2023-02-18T04:30:51;6.18;92.55
65573;SHT30;52214;50.940;13.996;2023-02-18T04:33:16;6.21;92.56
65573;SHT30;52214;50.940;13.996;2023-02-18T04:35:42;6.18;92.59
65573;SHT30;52214;50.940;13.996;2023-02-18T04:38:09;6.18;92.53
65573;SHT30;52214;50.940;13.996;2023-02-18T04:40:35;6.18;92.54
65573;SHT30;52214;50.940;13.996;2023-02-18T04:43:01;6.18;92.51
65573;SHT30;52214;50.940;13.996;2023-02-18T04:45:27;6.18;92.54
65573;SHT30;52214;50.940;13.996;2023-02-18T04:47:54;6.18;92.50
65573;SHT30;52214;50.940;13.996;2023-02-18T04:50:20;6.17;92.51
65573;SHT30;52214;50.940;13.996;2023-02-18T04:52:48;6.15;92.53
65573;SHT30;52214;50.940;13.996;2023-02-18T04:55:14;6.12;92.51
65573;SHT30;52214;50.940;13.996;2023-02-18T04:57:39;6.15;92.50
65573;SHT30;52214;50.940;13.996;2023-02-18T05:00:07;6.11;92.55
65573;SHT30;52214;50.940;13.996;2023-02-18T05:02:34;6.15;92.50
65573;SHT30;52214;50.940;13.996;2023-02-18T05:04:59;6.12;92.50
65573;SHT30;52214;50.940;13.996;2023-02-18T05:07:25;6.14;92.50
65573;SHT30;52214;50.940;13.996;2023-02-18T05:09:50;6.12;92.51
65573;SHT30;52214;50.940;13.996;2023-02-18T05:12:16;6.11;92.49
65573;SHT30;52214;50.940;13.996;2023-02-18T05:14:41;6.10;92.49
65573;SHT30;52214;50.940;13.996;2023-02-18T05:17:07;6.11;92.51
65573;SHT30;52214;50.940;13.996;2023-02-18T05:19:32;6.08;92.52
65573;SHT30;52214;50.940;13.996;2023-02-18T05:21:58;6.08;92.48
65573;SHT30;52214;50.940;13.996;2023-02-18T05:24:23;6.08;92.49
65573;SHT30;52214;50.940;13.996;2023-02-18T05:26:49;6.07;92.52
65573;SHT30;52214;50.940;13.996;2023-02-18T05:29:15;6.07;92.53
65573;SHT30;52214;50.940;13.996;2023-02-18T05:31:41;6.08;92.51
65573;SHT30;52214;50.940;13.996;2023-02-18T05:34:06;6.05;92.48
65573;SHT30;52214;50.940;13.996;2023-02-18T05:36:32;6.05;92.52
65573;SHT30;52214;50.940;13.996;2023-02-18T05:38:57;6.07;92.49
65573;SHT30;52214;50.940;13.996;2023-02-18T05:41:23;6.10;92.45
65573;SHT30;52214;50.940;13.996;2023-02-18T05:43:49;6.05;92.48
65573;SHT30;52214;50.940;13.996;2023-02-18T05:46:34;6.05;92.46
65573;SHT30;52214;50.940;13.996;2023-02-18T05:49:00;6.02;92.44
65573;SHT30;52214;50.940;13.996;2023-02-18T05:51:26;6.04;92.41
65573;SHT30;52214;50.940;13.996;2023-02-18T05:53:52;6.04;92.43
65573;SHT30;52214;50.940;13.996;2023-02-18T05:56:17;6.02;92.43
65573;SHT30;52214;50.940;13.996;2023-02-18T05:58:43;6.04;92.43
65573;SHT30;52214;50.940;13.996;2023-02-18T06:01:09;6.04;92.41
65573;SHT30;52214;50.940;13.996;2023-02-18T06:03:34;6.04;92.38
65573;SHT30;52214;50.940;13.996;2023-02-18T06:06:01;6.01;92.37
65573;SHT30;52214;50.940;13.996;2023-02-18T06:08:26;6.00;92.36
65573;SHT30;52214;50.940;13.996;2023-02-18T06:10:52;6.01;92.37
65573;SHT30;52214;50.940;13.996;2023-02-18T06:13:17;5.98;92.38
65573;SHT30;52214;50.940;13.996;2023-02-18T06:15:43;5.98;92.36
65573;SHT30;52214;50.940;13.996;2023-02-18T06:18:08;5.98;92.39
65573;SHT30;52214;50.940;13.996;2023-02-18T06:20:38;5.98;92.34
65573;SHT30;52214;50.940;13.996;2023-02-18T06:23:05;5.98;92.34
65573;SHT30;52214;50.940;13.996;2023-02-18T06:25:30;6.00;92.28
65573;SHT30;52214;50.940;13.996;2023-02-18T06:27:57;5.98;92.32
65573;SHT30;52214;50.940;13.996;2023-02-18T06:30:23;5.97;92.29
65573;SHT30;52214;50.940;13.996;2023-02-18T06:32:49;6.00;92.28
65573;SHT30;52214;50.940;13.996;2023-02-18T06:35:16;5.97;92.31
65573;SHT30;52214;50.940;13.996;2023-02-18T06:37:41;5.98;92.27
65573;SHT30;52214;50.940;13.996;2023-02-18T06:40:08;5.95;92.29
65573;SHT30;52214;50.940;13.996;2023-02-18T06:42:33;5.95;92.27
65573;SHT30;52214;50.940;13.996;2023-02-18T06:44:59;5.95;92.25
65573;SHT30;52214;50.940;13.996;2023-02-18T06:47:25;5.94;92.25
65573;SHT30;52214;50.940;13.996;2023-02-18T06:49:51;5.95;92.23
65573;SHT30;52214;50.940;13.996;2023-02-18T06:52:16;5.95;92.24
65573;SHT30;52214;50.940;13.996;2023-02-18T06:54:42;5.95;92.22
65573;SHT30;52214;50.940;13.996;2023-02-18T06:57:07;5.95;92.21
65573;SHT30;52214;50.940;13.996;2023-02-18T06:59:33;5.95;92.19
65573;SHT30;52214;50.940;13.996;2023-02-18T07:02:02;5.94;92.17
65573;SHT30;52214;50.940;13.996;2023-02-18T07:04:28;5.95;92.14
65573;SHT30;52214;50.940;13.996;2023-02-18T07:06:53;5.95;92.16
65573;SHT30;52214;50.940;13.996;2023-02-18T07:09:22;5.94;92.15
65573;SHT30;52214;50.940;13.996;2023-02-18T07:11:51;5.95;92.12
65573;SHT30;52214;50.940;13.996;2023-02-18T07:14:17;5.95;92.12
65573;SHT30;52214;50.940;13.996;2023-02-18T07:16:44;5.94;92.12
65573;SHT30;52214;50.940;13.996;2023-02-18T07:19:10;5.94;92.07
65573;SHT30;52214;50.940;13.996;2023-02-18T07:21:36;5.97;92.03
65573;SHT30;52214;50.940;13.996;2023-02-18T07:24:01;5.97;92.03
65573;SHT30;52214;50.940;13.996;2023-02-18T07:26:27;5.97;91.99
65573;SHT30;52214;50.940;13.996;2023-02-18T07:28:53;5.98;91.97
65573;SHT30;52214;50.940;13.996;2023-02-18T07:31:18;5.97;91.94
65573;SHT30;52214;50.940;13.996;2023-02-18T07:33:44;6.00;91.89
65573;SHT30;52214;50.940;13.996;2023-02-18T07:36:10;6.01;91.91
65573;SHT30;52214;50.940;13.996;2023-02-18T07:38:35;6.01;91.85
65573;SHT30;52214;50.940;13.996;2023-02-18T07:41:01;5.98;91.89
65573;SHT30;52214;50.940;13.996;2023-02-18T07:43:27;6.00;91.85
65573;SHT30;52214;50.940;13.996;2023-02-18T07:45:52;6.00;91.85
65573;SHT30;52214;50.940;13.996;2023-02-18T07:48:19;5.97;91.81
65573;SHT30;52214;50.940;13.996;2023-02-18T07:50:46;5.97;91.85
65573;SHT30;52214;50.940;13.996;2023-02-18T07:53:14;6.00;91.84
65573;SHT30;52214;50.940;13.996;2023-02-18T07:55:40;5.98;91.82
65573;SHT30;52214;50.940;13.996;2023-02-18T07:58:18;5.98;91.83
65573;SHT30;52214;50.940;13.996;2023-02-18T08:00:44;6.00;91.81
65573;SHT30;52214;50.940;13.996;2023-02-18T08:03:13;5.97;91.81
65573;SHT30;52214;50.940;13.996;2023-02-18T08:05:39;5.97;91.82
65573;SHT30;52214;50.940;13.996;2023-02-18T08:08:04;5.97;91.83
65573;SHT30;52214;50.940;13.996;2023-02-18T08:10:30;5.98;91.79
65573;SHT30;52214;50.940;13.996;2023-02-18T08:12:56;6.00;91.73
65573;SHT30;52214;50.940;13.996;2023-02-18T08:15:24;6.04;91.72
65573;SHT30;52214;50.940;13.996;2023-02-18T08:17:51;6.05;91.68
65573;SHT30;52214;50.940;13.996;2023-02-18T08:20:16;6.08;91.59
65573;SHT30;52214;50.940;13.996;2023-02-18T08:22:42;6.10;91.54
65573;SHT30;52214;50.940;13.996;2023-02-18T08:25:07;6.11;91.52
65573;SHT30;52214;50.940;13.996;2023-02-18T08:27:33;6.12;91.46
65573;SHT30;52214;50.940;13.996;2023-02-18T08:29:58;6.11;91.43
65573;SHT30;52214;50.940;13.996;2023-02-18T08:32:26;6.14;91.44
65573;SHT30;52214;50.940;13.996;2023-02-18T08:34:53;6.10;91.47
65573;SHT30;52214;50.940;13.996;2023-02-18T08:37:19;6.12;91.45
65573;SHT30;52214;50.940;13.996;2023-02-18T08:39:45;6.08;91.45
65573;SHT30;52214;50.940;13.996;2023-02-18T08:42:10;6.15;91.48
65573;SHT30;52214;50.940;13.996;2023-02-18T08:44:36;6.11;91.43
65573;SHT30;52214;50.940;13.996;2023-02-18T08:47:02;6.14;91.46
65573;SHT30;52214;50.940;13.996;2023-02-18T08:49:28;6.15;91.48
65573;SHT30;52214;50.940;13.996;2023-02-18T08:51:53;6.12;91.48
65573;SHT30;52214;50.940;13.996;2023-02-18T08:54:19;6.11;91.50
65573;SHT30;52214;50.940;13.996;2023-02-18T08:56:45;6.08;91.58
65573;SHT30;52214;50.940;13.996;2023-02-18T08:59:12;6.08;91.62
65573;SHT30;52214;50.940;13.996;2023-02-18T09:01:38;6.11;91.64
65573;SHT30;52214;50.940;13.996;2023-02-18T09:04:03;6.08;91.71
65573;SHT30;52214;50.940;13.996;2023-02-18T09:06:29;6.11;91.62
65573;SHT30;52214;50.940;13.996;2023-02-18T09:08:55;6.19;91.47
65573;SHT30;52214;50.940;13.996;2023-02-18T09:11:21;6.19;91.35
65573;SHT30;52214;50.940;13.996;2023-02-18T09:13:47;6.19;91.31
65573;SHT30;52214;50.940;13.996;2023-02-18T09:16:16;6.18;91.35
65573;SHT30;52214;50.940;13.996;2023-02-18T09:18:43;6.18;91.41
65573;SHT30;52214;50.940;13.996;2023-02-18T09:21:10;6.14;91.52
65573;SHT30;52214;50.940;13.996;2023-02-18T09:23:38;6.14;91.52
65573;SHT30;52214;50.940;13.996;2023-02-18T09:26:05;6.11;91.56
65573;SHT30;52214;50.940;13.996;2023-02-18T09:28:34;6.12;91.62
65573;SHT30;52214;50.940;13.996;2023-02-18T09:31:06;6.14;91.63
65573;SHT30;52214;50.940;13.996;2023-02-18T09:33:37;6.11;91.69
65573;SHT30;52214;50.940;13.996;2023-02-18T09:36:04;6.10;91.69
65573;SHT30;52214;50.940;13.996;2023-02-18T09:38:29;6.10;91.73
65573;SHT30;52214;50.940;13.996;2023-02-18T09:40:56;6.07;91.79
65573;SHT30;52214;50.940;13.996;2023-02-18T09:43:31;6.10;91.79
65573;SHT30;52214;50.940;13.996;2023-02-18T09:45:59;6.11;91.77
65573;SHT30;52214;50.940;13.996;2023-02-18T09:48:28;6.10;91.81
65573;SHT30;52214;50.940;13.996;2023-02-18T09:50:55;6.08;91.83
65573;SHT30;52214;50.940;13.996;2023-02-18T09:53:22;6.08;91.83
65573;SHT30;52214;50.940;13.996;2023-02-18T09:55:49;6.11;91.81
65573;SHT30;52214;50.940;13.996;2023-02-18T09:58:20;6.11;91.83
65573;SHT30;52214;50.940;13.996;2023-02-18T10:00:51;6.12;91.78
65573;SHT30;52214;50.940;13.996;2023-02-18T10:03:21;6.12;91.78
65573;SHT30;52214;50.940;13.996;2023-02-18T10:06:04;6.12;91.76
65573;SHT30;52214;50.940;13.996;2023-02-18T10:08:35;6.14;91.83
65573;SHT30;52214;50.940;13.996;2023-02-18T10:11:01;6.14;91.85
65573;SHT30;52214;50.940;13.996;2023-02-18T10:13:30;6.12;91.89
65573;SHT30;52214;50.940;13.996;2023-02-18T10:15:57;6.12;91.92
65573;SHT30;52214;50.940;13.996;2023-02-18T10:18:44;6.14;91.96
65573;SHT30;52214;50.940;13.996;2023-02-18T10:21:19;6.12;91.99
65573;SHT30;52214;50.940;13.996;2023-02-18T10:23:59;6.08;91.95
65573;SHT30;52214;50.940;13.996;2023-02-18T10:26:28;6.11;91.98
65573;SHT30;52214;50.940;13.996;2023-02-18T10:28:56;6.12;92.02
65573;SHT30;52214;50.940;13.996;2023-02-18T10:31:29;6.12;91.98
65573;SHT30;52214;50.940;13.996;2023-02-18T10:34:03;6.14;92.02
65573;SHT30;52214;50.940;13.996;2023-02-18T10:36:44;6.12;92.03
65573;SHT30;52214;50.940;13.996;2023-02-18T10:39:38;6.14;92.07
65573;SHT30;52214;50.940;13.996;2023-02-18T10:42:30;6.15;91.92
65573;SHT30;52214;50.940;13.996;2023-02-18T10:47:49;6.14;91.95
65573;SHT30;52214;50.940;13.996;2023-02-18T10:50:19;6.14;91.98
65573;SHT30;52214;50.940;13.996;2023-02-18T10:52:51;6.15;92.01
65573;SHT30;52214;50.940;13.996;2023-02-18T10:55:18;6.15;92.05
65573;SHT30;52214;50.940;13.996;2023-02-18T10:57:57;6.17;92.04
65573;SHT30;52214;50.940;13.996;2023-02-18T11:00:25;6.14;92.06
65573;SHT30;52214;50.940;13.996;2023-02-18T11:03:15;6.15;91.99
65573;SHT30;52214;50.940;13.996;2023-02-18T11:08:07;6.17;92.06
65573;SHT30;52214;50.940;13.996;2023-02-18T11:10:38;6.15;92.07
65573;SHT30;52214;50.940;13.996;2023-02-18T11:13:06;6.18;92.03
65573;SHT30;52214;50.940;13.996;2023-02-18T11:15:33;6.18;92.03
65573;SHT30;52214;50.940;13.996;2023-02-18T11:18:28;6.17;92.07
65573;SHT30;52214;50.940;13.996;2023-02-18T11:23:20;6.14;92.10
65573;SHT30;52214;50.940;13.996;2023-02-18T11:26:03;6.17;92.07
65573;SHT30;52214;50.940;13.996;2023-02-18T11:28:44;6.18;92.06
65573;SHT30;52214;50.940;13.996;2023-02-18T11:31:20;6.18;92.06
65573;SHT30;52214;50.940;13.996;2023-02-18T11:33:50;6.17;92.08
65573;SHT30;52214;50.940;13.996;2023-02-18T11:36:21;6.17;92.06
65573;SHT30;52214;50.940;13.996;2023-02-18T11:38:53;6.17;92.10
65573;SHT30;52214;50.940;13.996;2023-02-18T11:41:29;6.18;92.07
65573;SHT30;52214;50.940;13.996;2023-02-18T11:43:55;6.15;92.09
65573;SHT30;52214;50.940;13.996;2023-02-18T11:46:24;6.17;92.13
65573;SHT30;52214;50.940;13.996;2023-02-18T11:48:51;6.17;92.12
65573;SHT30;52214;50.940;13.996;2023-02-18T11:53:57;6.18;92.09
65573;SHT30;52214;50.940;13.996;2023-02-18T11:56:25;6.18;92.07
65573;SHT30;52214;50.940;13.996;2023-02-18T11:58:51;6.18;92.10
65573;SHT30;52214;50.940;13.996;2023-02-18T12:03:58;6.19;92.08
65573;SHT30;52214;50.940;13.996;2023-02-18T12:06:38;6.18;92.10
65573;SHT30;52214;50.940;13.996;2023-02-18T12:09:17;6.17;92.07
65573;SHT30;52214;50.940;13.996;2023-02-18T12:11:48;6.18;92.09
65573;SHT30;52214;50.940;13.996;2023-02-18T12:14:20;6.19;92.09
65573;SHT30;52214;50.940;13.996;2023-02-18T12:17:03;6.17;92.10
65573;SHT30;52214;50.940;13.996;2023-02-18T12:22:42;6.18;92.08
65573;SHT30;52214;50.940;13.996;2023-02-18T12:25:33;6.22;92.07
65573;SHT30;52214;50.940;13.996;2023-02-18T12:28:38;6.19;92.08
65573;SHT30;52214;50.940;13.996;2023-02-18T12:31:11;6.21;92.12
65573;SHT30;52214;50.940;13.996;2023-02-18T12:39:17;6.19;92.09
65573;SHT30;52214;50.940;13.996;2023-02-18T12:42:09;6.21;92.07
65573;SHT30;52214;50.940;13.996;2023-02-18T12:53:58;6.21;92.11
65573;SHT30;52214;50.940;13.996;2023-02-18T13:04:40;6.24;92.13
65573;SHT30;52214;50.940;13.996;2023-02-18T13:07:29;6.21;92.10
65573;SHT30;52214;50.940;13.996;2023-02-18T13:13:32;6.21;92.17
65573;SHT30;52214;50.940;13.996;2023-02-18T13:16:12;6.22;92.13
65573;SHT30;52214;50.940;13.996;2023-02-18T13:21:30;6.22;92.17
65573;SHT30;52214;50.940;13.996;2023-02-18T13:24:14;6.19;92.13
65573;SHT30;52214;50.940;13.996;2023-02-18T13:26:47;6.22;92.15
65573;SHT30;52214;50.940;13.996;2023-02-18T13:29:37;6.21;92.16
65573;SHT30;52214;50.940;13.996;2023-02-18T13:32:28;6.19;92.14
65573;SHT30;52214;50.940;13.996;2023-02-18T13:35:24;6.21;92.17
65573;SHT30;52214;50.940;13.996;2023-02-18T13:38:17;6.22;92.13
65573;SHT30;52214;50.940;13.996;2023-02-18T13:40:46;6.21;92.16
65573;SHT30;52214;50.940;13.996;2023-02-18T13:43:18;6.21;92.15
65573;SHT30;52214;50.940;13.996;2023-02-18T13:46:17;6.19;92.14
65573;SHT30;52214;50.940;13.996;2023-02-18T13:48:49;6.21;92.16
65573;SHT30;52214;50.940;13.996;2023-02-18T13:51:39;6.21;92.20
65573;SHT30;52214;50.940;13.996;2023-02-18T13:56:42;6.22;92.16
65573;SHT30;52214;50.940;13.996;2023-02-18T13:59:14;6.24;92.18
65573;SHT30;52214;50.940;13.996;2023-02-18T14:01:46;6.21;92.21
65573;SHT30;52214;50.940;13.996;2023-02-18T14:16:05;6.22;92.17
65573;SHT30;52214;50.940;13.996;2023-02-18T14:18:55;6.21;92.21
65573;SHT30;52214;50.940;13.996;2023-02-18T14:21:44;6.24;92.19
65573;SHT30;52214;50.940;13.996;2023-02-18T14:24:42;6.22;92.23
65573;SHT30;52214;50.940;13.996;2023-02-18T14:27:38;6.21;92.22
65573;SHT30;52214;50.940;13.996;2023-02-18T14:30:17;6.22;92.24
65573;SHT30;52214;50.940;13.996;2023-02-18T14:32:54;6.24;92.21
65573;SHT30;52214;50.940;13.996;2023-02-18T14:35:37;6.21;92.24
65573;SHT30;52214;50.940;13.996;2023-02-18T14:38:31;6.21;92.24
65573;SHT30;52214;50.940;13.996;2023-02-18T14:49:33;6.22;92.29
65573;SHT30;52214;50.940;13.996;2023-02-18T14:52:37;6.21;92.30
65573;SHT30;52214;50.940;13.996;2023-02-18T14:55:15;6.21;92.28
65573;SHT30;52214;50.940;13.996;2023-02-18T15:03:55;6.21;92.31
65573;SHT30;52214;50.940;13.996;2023-02-18T15:06:27;6.22;92.32
65573;SHT30;52214;50.940;13.996;2023-02-18T15:08:54;6.21;92.32
65573;SHT30;52214;50.940;13.996;2023-02-18T15:11:24;6.21;92.33
65573;SHT30;52214;50.940;13.996;2023-02-18T15:13:50;6.22;92.37
65573;SHT30;52214;50.940;13.996;2023-02-18T15:16:29;6.24;92.38
65573;SHT30;52214;50.940;13.996;2023-02-18T15:18:59;6.21;92.34
65573;SHT30;52214;50.940;13.996;2023-02-18T15:21:32;6.21;92.34
65573;SHT30;52214;50.940;13.996;2023-02-18T15:24:06;6.24;92.35
65573;SHT30;52214;50.940;13.996;2023-02-18T15:26:35;6.21;92.36
65573;SHT30;52214;50.940;13.996;2023-02-18T15:29:14;6.18;92.39
65573;SHT30;52214;50.940;13.996;2023-02-18T15:31:42;6.21;92.41
65573;SHT30;52214;50.940;13.996;2023-02-18T15:34:29;6.22;92.43
65573;SHT30;52214;50.940;13.996;2023-02-18T15:36:57;6.21;92.42
65573;SHT30;52214;50.940;13.996;2023-02-18T15:39:23;6.18;92.42
65573;SHT30;52214;50.940;13.996;2023-02-18T15:41:55;6.21;92.44
65573;SHT30;52214;50.940;13.996;2023-02-18T15:44:24;6.21;92.45
65573;SHT30;52214;50.940;13.996;2023-02-18T15:46:52;6.19;92.48
65573;SHT30;52214;50.940;13.996;2023-02-18T15:49:20;6.18;92.48
65573;SHT30;52214;50.940;13.996;2023-02-18T15:51:47;6.18;92.50
65573;SHT30;52214;50.940;13.996;2023-02-18T15:54:17;6.18;92.55
65573;SHT30;52214;50.940;13.996;2023-02-18T15:56:45;6.18;92.59
65573;SHT30;52214;50.940;13.996;2023-02-18T15:59:32;6.15;92.55
65573;SHT30;52214;50.940;13.996;2023-02-18T16:02:20;6.18;92.60
65573;SHT30;52214;50.940;13.996;2023-02-18T16:07:26;6.17;92.61
65573;SHT30;52214;50.940;13.996;2023-02-18T16:12:44;6.14;92.62
65573;SHT30;52214;50.940;13.996;2023-02-18T16:15:16;6.15;92.61
65573;SHT30;52214;50.940;13.996;2023-02-18T16:17:44;6.14;92.63
65573;SHT30;52214;50.940;13.996;2023-02-18T16:22:44;6.15;92.66
65573;SHT30;52214;50.940;13.996;2023-02-18T16:25:23;6.15;92.61
65573;SHT30;52214;50.940;13.996;2023-02-18T16:28:03;6.14;92.69
65573;SHT30;52214;50.940;13.996;2023-02-18T16:30:32;6.12;92.66
65573;SHT30;52214;50.940;13.996;2023-02-18T16:32:59;6.11;92.70
65573;SHT30;52214;50.940;13.996;2023-02-18T16:35:27;6.12;92.69
65573;SHT30;52214;50.940;13.996;2023-02-18T16:37:54;6.10;92.66
65573;SHT30;52214;50.940;13.996;2023-02-18T16:40:38;6.11;92.67
65573;SHT30;52214;50.940;13.996;2023-02-18T16:43:14;6.11;92.68
65573;SHT30;52214;50.940;13.996;2023-02-18T16:45:46;6.12;92.70
65573;SHT30;52214;50.940;13.996;2023-02-18T16:48:31;6.11;92.70
65573;SHT30;52214;50.940;13.996;2023-02-18T16:51:01;6.10;92.71
65573;SHT30;52214;50.940;13.996;2023-02-18T16:53:27;6.12;92.72
65573;SHT30;52214;50.940;13.996;2023-02-18T16:55:52;6.11;92.71
65573;SHT30;52214;50.940;13.996;2023-02-18T16:58:18;6.11;92.70
65573;SHT30;52214;50.940;13.996;2023-02-18T17:00:45;6.11;92.70
65573;SHT30;52214;50.940;13.996;2023-02-18T17:03:11;6.08;92.72
65573;SHT30;52214;50.940;13.996;2023-02-18T17:05:37;6.10;92.72
65573;SHT30;52214;50.940;13.996;2023-02-18T17:08:22;6.10;92.72
65573;SHT30;52214;50.940;13.996;2023-02-18T17:10:49;6.07;92.75
65573;SHT30;52214;50.940;13.996;2023-02-18T17:13:18;6.08;92.71
65573;SHT30;52214;50.940;13.996;2023-02-18T17:15:46;6.08;92.73
65573;SHT30;52214;50.940;13.996;2023-02-18T17:18:12;6.08;92.76
65573;SHT30;52214;50.940;13.996;2023-02-18T17:20:38;6.07;92.73
65573;SHT30;52214;50.940;13.996;2023-02-18T17:23:04;6.08;92.74
65573;SHT30;52214;50.940;13.996;2023-02-18T17:25:34;6.07;92.70
65573;SHT30;52214;50.940;13.996;2023-02-18T17:28:00;6.07;92.72
65573;SHT30;52214;50.940;13.996;2023-02-18T17:30:27;6.05;92.74
65573;SHT30;52214;50.940;13.996;2023-02-18T17:32:53;6.04;92.72
65573;SHT30;52214;50.940;13.996;2023-02-18T17:35:21;6.04;92.65
65573;SHT30;52214;50.940;13.996;2023-02-18T17:37:47;6.05;92.70
65573;SHT30;52214;50.940;13.996;2023-02-18T17:40:15;6.05;92.69
65573;SHT30;52214;50.940;13.996;2023-02-18T17:42:42;6.04;92.65
65573;SHT30;52214;50.940;13.996;2023-02-18T17:45:30;6.02;92.68
65573;SHT30;52214;50.940;13.996;2023-02-18T17:47:59;6.04;92.64
65573;SHT30;52214;50.940;13.996;2023-02-18T17:50:28;6.01;92.66
65573;SHT30;52214;50.940;13.996;2023-02-18T17:52:55;6.01;92.69